Main page
METAR-TAF:

METAR-TAF

Airports :

Madrid–Torrejón Airport

Madrid-Torrejón, Spain

latitude: 40-29N, longitude: 003-27W, elevation: 607 m

Current weather observation

The report was made 36 minutes ago, at 01:00 UTC
Wind 4 kt from the Northeast, varying between North/Northeast and East
Temperature 20°C
Humidity 56%
Pressure 1019 hPa
Visibility 10 km or more
no clouds below 1500 m and no cumulonimbus

METAR: LETO 220100Z 05004KT 030V090 CAVOK 20/11 Q1019 NOSIG

Time: 03:36 (01:36 UTC)

Forecast

The report was made 2 hours and 36 minutes ago, at 23:00 UTC
Forecast valid from 22 at 00 UTC to 22 at 24 UTC
Wind 8 kt from the North/Northeast
Visibility 10 km or more
no clouds below 1500 m and no cumulonimbus

TAF: LETO 212300Z 2200/2224 02008KT CAVOK TX31/2216Z TN19/2205Z

Weather observations and forecasts of more than 4000 airports (METAR and TAF reports).

The available stations are represented by yellow and red dots on the map.

Hover mouse over dot to see the name of the station.

Then click to see weather observations and forecasts.

To change the map : click on the green buttons with a black cross to zoom in, on the green button with a dash to zoom out, or on the green arrows for adjacent maps.


METAR-TAF: